createdAt,value
2018-11-01T00:00:31.914Z,9.70
2018-11-01T00:03:00.161Z,9.70
2018-11-01T00:05:28.218Z,9.70
2018-11-01T00:07:56.740Z,9.60
2018-11-01T00:10:24.738Z,9.60
2018-11-01T00:12:53.297Z,9.50
2018-11-01T00:15:21.353Z,9.50
2018-11-01T00:17:49.378Z,9.40
2018-11-01T00:20:17.511Z,9.40
2018-11-01T00:22:45.554Z,9.40
2018-11-01T00:25:13.609Z,9.40
2018-11-01T00:27:42.309Z,9.40
2018-11-01T00:30:10.773Z,9.40
2018-11-01T00:32:38.877Z,9.40
2018-11-01T00:35:07.333Z,9.40
2018-11-01T00:37:35.384Z,9.30
2018-11-01T00:40:05.632Z,9.30
2018-11-01T00:42:33.666Z,9.20
2018-11-01T00:45:01.716Z,9.20
2018-11-01T00:47:29.745Z,9.30
2018-11-01T00:49:57.820Z,9.30
2018-11-01T00:52:25.958Z,9.30
2018-11-01T00:54:54.041Z,9.30
2018-11-01T00:57:22.086Z,9.30
2018-11-01T00:59:50.194Z,9.20
2018-11-01T01:02:18.353Z,9.20
2018-11-01T01:04:46.482Z,9.20
2018-11-01T01:07:14.577Z,9.20
2018-11-01T01:09:43.500Z,9.20
2018-11-01T01:12:11.625Z,9.10
2018-11-01T01:14:39.737Z,9.10
2018-11-01T01:17:07.829Z,9.10
2018-11-01T01:19:35.960Z,9.10
2018-11-01T01:22:04.865Z,9.00
2018-11-01T01:24:32.894Z,9.00
2018-11-01T01:27:01.015Z,9.00
2018-11-01T01:29:29.065Z,9.00
2018-11-01T01:31:57.089Z,9.00
2018-11-01T01:34:25.123Z,9.10
2018-11-01T01:36:53.275Z,9.20
2018-11-01T01:39:21.275Z,9.20
2018-11-01T01:41:49.368Z,9.20
2018-11-01T01:44:17.365Z,9.30
2018-11-01T01:46:45.420Z,9.30
2018-11-01T01:49:13.519Z,9.40
2018-11-01T01:51:41.551Z,9.40
2018-11-01T01:54:09.589Z,9.40
2018-11-01T01:56:37.615Z,9.50
2018-11-01T01:59:06.582Z,9.50
2018-11-01T02:01:34.690Z,9.50
2018-11-01T02:04:02.733Z,9.60
2018-11-01T02:06:30.764Z,9.60
2018-11-01T02:08:58.798Z,9.70
2018-11-01T02:11:26.867Z,9.70
2018-11-01T02:13:54.926Z,9.70
2018-11-01T02:16:22.952Z,9.70
2018-11-01T02:18:51.048Z,9.70
2018-11-01T02:21:19.102Z,9.80
2018-11-01T02:23:47.229Z,9.80
2018-11-01T02:26:15.332Z,9.80
2018-11-01T02:28:43.389Z,9.90
2018-11-01T02:31:11.459Z,9.80
2018-11-01T02:33:39.528Z,9.80
2018-11-01T02:36:38.557Z,9.90
2018-11-01T02:39:08.390Z,9.90
2018-11-01T02:41:36.487Z,9.90
2018-11-01T02:44:05.148Z,9.90
2018-11-01T02:46:33.209Z,9.80
2018-11-01T02:49:01.255Z,9.80
2018-11-01T02:51:29.332Z,9.70
2018-11-01T02:53:57.391Z,9.70
2018-11-01T02:56:25.487Z,9.70
2018-11-01T02:58:53.532Z,9.70
2018-11-01T03:01:21.620Z,9.70
2018-11-01T03:03:49.647Z,9.70
2018-11-01T03:06:17.683Z,9.70
2018-11-01T03:08:45.713Z,9.70
2018-11-01T03:11:13.770Z,9.70
2018-11-01T03:13:41.808Z,9.70
2018-11-01T03:16:09.856Z,9.70
2018-11-01T03:18:37.920Z,9.70
2018-11-01T03:21:05.989Z,9.70
2018-11-01T03:23:34.145Z,9.90
2018-11-01T03:26:02.250Z,9.90
2018-11-01T03:28:30.315Z,9.90
2018-11-01T03:30:58.366Z,9.90
2018-11-01T03:33:26.422Z,9.80
2018-11-01T03:35:54.475Z,9.80
2018-11-01T03:38:22.709Z,9.80
2018-11-01T03:40:50.617Z,9.80
2018-11-01T03:43:18.680Z,9.90
2018-11-01T03:45:47.531Z,10.00
2018-11-01T03:48:15.492Z,9.90
2018-11-01T03:50:43.534Z,9.90
2018-11-01T03:53:11.609Z,10.00
2018-11-01T03:55:39.704Z,9.90
2018-11-01T03:58:07.736Z,9.90
2018-11-01T04:00:35.748Z,9.90
2018-11-01T04:03:04.119Z,9.80
2018-11-01T04:05:32.190Z,9.70
2018-11-01T04:08:00.250Z,9.70
2018-11-01T04:10:28.295Z,9.70
2018-11-01T04:12:56.461Z,9.60
2018-11-01T04:15:24.794Z,9.60
2018-11-01T04:17:52.666Z,9.60
2018-11-01T04:20:20.777Z,9.60
2018-11-01T04:22:48.868Z,9.50
2018-11-01T04:25:16.916Z,9.50
2018-11-01T04:27:44.954Z,9.40
2018-11-01T04:30:12.957Z,9.40
2018-11-01T04:32:40.971Z,9.30
2018-11-01T04:35:09.005Z,9.20
2018-11-01T04:37:37.029Z,9.20
2018-11-01T04:40:05.872Z,9.20
2018-11-01T04:42:33.897Z,9.10
2018-11-01T04:45:02.038Z,9.10
2018-11-01T04:47:30.147Z,9.10
2018-11-01T04:49:58.081Z,9.00
2018-11-01T04:52:26.092Z,9.00
2018-11-01T04:54:54.121Z,9.00
2018-11-01T04:57:22.121Z,8.90
2018-11-01T04:59:50.133Z,8.90
2018-11-01T05:02:18.133Z,8.90
2018-11-01T05:04:46.609Z,8.90
2018-11-01T05:07:14.625Z,9.00
2018-11-01T05:09:42.648Z,9.10
2018-11-01T05:12:10.686Z,9.20
2018-11-01T05:14:38.697Z,9.20
2018-11-01T05:17:06.721Z,9.40
2018-11-01T05:19:34.756Z,9.40
2018-11-01T05:22:02.832Z,9.50
2018-11-01T05:24:30.875Z,9.50
2018-11-01T05:26:58.968Z,9.40
2018-11-01T05:29:26.995Z,9.40
2018-11-01T05:31:55.011Z,9.40
2018-11-01T05:34:23.013Z,9.40
2018-11-01T05:36:51.050Z,9.30
2018-11-01T05:39:19.065Z,9.20
2018-11-01T05:41:47.105Z,9.20
2018-11-01T05:44:15.129Z,9.20
2018-11-01T05:46:43.185Z,9.20
2018-11-01T05:49:11.220Z,9.20
2018-11-01T05:51:39.373Z,9.20
2018-11-01T05:54:07.421Z,9.10
2018-11-01T05:56:35.450Z,9.10
2018-11-01T05:59:03.712Z,9.10
2018-11-01T06:01:31.807Z,9.10
2018-11-01T06:04:00.168Z,9.10
2018-11-01T06:06:28.252Z,9.20
2018-11-01T06:08:56.297Z,9.20
2018-11-01T06:11:24.306Z,9.20
2018-11-01T06:13:52.540Z,9.10
2018-11-01T06:16:20.531Z,9.10
2018-11-01T06:18:48.589Z,9.00
2018-11-01T06:21:16.623Z,9.00
2018-11-01T06:23:44.717Z,8.90
2018-11-01T06:26:12.761Z,8.80
2018-11-01T06:28:40.784Z,8.80
2018-11-01T06:31:08.806Z,8.80
2018-11-01T06:33:36.972Z,8.70
2018-11-01T06:36:05.009Z,8.60
2018-11-01T06:38:33.146Z,8.60
2018-11-01T06:41:01.245Z,8.60
2018-11-01T06:43:29.345Z,8.50
2018-11-01T06:45:57.444Z,8.50
2018-11-01T06:48:25.501Z,8.40
2018-11-01T06:50:53.530Z,8.50
2018-11-01T06:53:22.109Z,8.40
2018-11-01T06:55:50.154Z,8.40
2018-11-01T06:58:18.288Z,8.40
2018-11-01T07:00:46.234Z,8.40
2018-11-01T07:03:14.298Z,8.50
2018-11-01T07:05:42.552Z,8.50
2018-11-01T07:08:10.580Z,8.50
2018-11-01T07:10:38.592Z,8.60
2018-11-01T07:13:06.628Z,8.60
2018-11-01T07:15:34.633Z,8.60
2018-11-01T07:18:02.741Z,8.70
2018-11-01T07:20:30.785Z,8.80
2018-11-01T07:22:58.828Z,8.90
2018-11-01T07:25:27.079Z,8.90
2018-11-01T07:27:55.038Z,9.00
2018-11-01T07:30:23.073Z,9.10
2018-11-01T07:32:51.144Z,9.20
2018-11-01T07:35:19.254Z,9.20
2018-11-01T07:37:47.459Z,9.30
2018-11-01T07:40:15.482Z,9.30
2018-11-01T07:42:43.544Z,9.40
2018-11-01T07:45:11.606Z,9.50
2018-11-01T07:47:39.624Z,9.50
2018-11-01T07:50:07.758Z,9.50
2018-11-01T07:52:35.985Z,9.60
2018-11-01T07:55:04.547Z,9.60
2018-11-01T07:57:32.602Z,9.60
2018-11-01T08:00:00.843Z,9.70
2018-11-01T08:02:28.865Z,9.70
2018-11-01T08:04:56.942Z,9.70
2018-11-01T08:07:25.103Z,9.70
2018-11-01T08:09:53.363Z,9.70
2018-11-01T08:12:21.501Z,9.70
2018-11-01T08:14:49.577Z,9.80
2018-11-01T08:17:17.657Z,9.80
2018-11-01T08:19:45.774Z,9.80
2018-11-01T08:22:13.718Z,9.80
2018-11-01T08:24:41.765Z,9.80
2018-11-01T08:27:09.809Z,9.80
2018-11-01T08:29:37.974Z,9.70
2018-11-01T08:32:06.185Z,9.70
2018-11-01T08:34:34.314Z,9.80
2018-11-01T08:37:02.382Z,9.80
2018-11-01T08:39:30.428Z,9.90
2018-11-01T08:41:58.421Z,9.90
2018-11-01T08:44:26.565Z,10.10
2018-11-01T08:46:54.637Z,10.10
2018-11-01T08:49:22.783Z,10.20
2018-11-01T08:51:50.869Z,10.20
2018-11-01T08:54:18.944Z,10.30
2018-11-01T08:56:46.985Z,10.40
2018-11-01T08:59:15.192Z,10.60
2018-11-01T09:01:43.264Z,10.60
2018-11-01T09:04:11.391Z,10.60
2018-11-01T09:06:39.363Z,10.70
2018-11-01T09:09:07.825Z,10.80
2018-11-01T09:11:36.017Z,10.90
2018-11-01T09:14:04.227Z,11.10
2018-11-01T09:16:32.353Z,11.20
2018-11-01T09:19:00.401Z,11.20
2018-11-01T09:21:28.489Z,11.30
2018-11-01T09:23:56.532Z,11.30
2018-11-01T09:26:24.585Z,11.30
2018-11-01T09:28:52.638Z,11.20
2018-11-01T09:31:20.883Z,11.30
2018-11-01T09:33:48.953Z,11.20
2018-11-01T09:36:17.033Z,11.30
2018-11-01T09:38:45.135Z,11.30
2018-11-01T09:41:13.192Z,11.30
2018-11-01T09:43:41.310Z,11.40
2018-11-01T09:46:09.534Z,11.40
2018-11-01T09:48:37.595Z,11.40
2018-11-01T09:51:08.960Z,11.40
2018-11-01T09:53:36.961Z,11.50
2018-11-01T09:56:05.091Z,11.50
2018-11-01T09:58:33.226Z,11.60
2018-11-01T10:01:01.336Z,11.60
2018-11-01T10:03:29.369Z,11.60
2018-11-01T10:05:57.508Z,11.60
2018-11-01T10:08:25.554Z,11.60
2018-11-01T10:10:53.608Z,11.70
2018-11-01T10:13:23.230Z,11.70
2018-11-01T10:15:51.594Z,11.60
2018-11-01T10:18:19.872Z,11.70
2018-11-01T10:20:47.468Z,11.70
2018-11-01T10:23:15.536Z,11.70
2018-11-01T10:25:43.671Z,12.10
2018-11-01T10:28:11.702Z,12.50
2018-11-01T10:30:39.750Z,13.00
2018-11-01T10:33:08.937Z,13.20
2018-11-01T10:35:37.128Z,13.10
2018-11-01T10:38:05.137Z,12.90
2018-11-01T10:40:33.241Z,12.70
2018-11-01T10:43:01.230Z,12.60
2018-11-01T10:45:29.371Z,12.50
2018-11-01T10:47:58.354Z,12.40
2018-11-01T10:50:26.448Z,12.30
2018-11-01T10:52:54.546Z,12.20
2018-11-01T10:55:22.709Z,12.10
2018-11-01T10:57:50.756Z,12.10
2018-11-01T11:00:18.967Z,12.10
2018-11-01T11:02:46.921Z,12.00
2018-11-01T11:05:15.481Z,12.00
2018-11-01T11:07:43.526Z,12.00
2018-11-01T11:10:11.623Z,12.00
2018-11-01T11:12:39.697Z,12.00
2018-11-01T11:15:08.102Z,11.90
2018-11-01T11:17:36.193Z,11.90
2018-11-01T11:20:04.746Z,11.90
2018-11-01T11:22:32.858Z,11.90
2018-11-01T11:25:00.949Z,11.90
2018-11-01T11:27:29.170Z,12.00
2018-11-01T11:29:57.302Z,11.90
2018-11-01T11:32:25.369Z,11.90
2018-11-01T11:34:53.491Z,12.00
2018-11-01T11:37:21.649Z,12.00
2018-11-01T11:39:49.872Z,12.00
2018-11-01T11:42:17.829Z,12.00
2018-11-01T11:44:46.035Z,12.00
2018-11-01T11:47:14.224Z,12.00
2018-11-01T11:49:42.359Z,12.00
2018-11-01T11:52:10.507Z,12.00
2018-11-01T11:54:38.886Z,12.00
2018-11-01T11:57:07.054Z,12.00
2018-11-01T11:59:35.032Z,12.00
2018-11-01T12:02:03.302Z,12.00
2018-11-01T12:04:31.370Z,12.00
2018-11-01T12:06:59.488Z,12.00
2018-11-01T12:09:27.529Z,12.00
2018-11-01T12:11:55.595Z,11.90
2018-11-01T12:14:23.666Z,11.90
2018-11-01T12:16:51.738Z,11.90
2018-11-01T12:19:19.792Z,11.90
2018-11-01T12:21:47.893Z,11.90
2018-11-01T12:24:16.349Z,11.80
2018-11-01T12:26:44.413Z,11.80
2018-11-01T12:29:12.580Z,11.80
2018-11-01T12:31:40.608Z,11.80
2018-11-01T12:34:08.629Z,11.80
2018-11-01T12:36:36.705Z,11.90
2018-11-01T12:39:06.804Z,11.90
2018-11-01T12:41:34.957Z,11.90
2018-11-01T12:44:03.037Z,11.90
2018-11-01T12:46:31.161Z,11.90
2018-11-01T12:48:59.671Z,11.80
2018-11-01T12:51:27.747Z,11.90
2018-11-01T12:53:55.862Z,11.90
2018-11-01T12:56:23.969Z,11.90
2018-11-01T12:58:51.956Z,12.00
2018-11-01T13:01:20.073Z,12.10
2018-11-01T13:03:48.323Z,12.10
2018-11-01T13:06:16.417Z,12.10
2018-11-01T13:08:44.515Z,12.10
2018-11-01T13:11:12.653Z,12.20
2018-11-01T13:13:40.760Z,12.20
2018-11-01T13:16:08.830Z,12.20
2018-11-01T13:18:36.936Z,12.10
2018-11-01T13:21:05.043Z,12.10
2018-11-01T13:23:33.097Z,12.10
2018-11-01T13:26:01.482Z,12.10
2018-11-01T13:28:30.385Z,12.10
2018-11-01T13:30:58.475Z,12.00
2018-11-01T13:33:26.548Z,11.90
2018-11-01T13:35:54.613Z,11.90
2018-11-01T13:38:22.698Z,11.90
2018-11-01T13:40:51.184Z,11.80
2018-11-01T13:43:18.931Z,11.80
2018-11-01T13:45:47.045Z,11.80
2018-11-01T13:48:15.332Z,11.70
2018-11-01T13:50:43.241Z,11.70
2018-11-01T13:53:11.271Z,11.70
2018-11-01T13:55:39.323Z,11.70
2018-11-01T13:58:07.368Z,11.70
2018-11-01T14:00:35.434Z,11.70
2018-11-01T14:03:03.490Z,11.60
2018-11-01T14:05:31.668Z,11.50
2018-11-01T14:07:59.730Z,11.50
2018-11-01T14:10:27.873Z,11.50
2018-11-01T14:12:55.922Z,11.50
2018-11-01T14:15:24.342Z,11.40
2018-11-01T14:17:52.001Z,11.40
2018-11-01T14:20:20.260Z,11.30
2018-11-01T14:22:48.336Z,11.30
2018-11-01T14:25:16.437Z,11.20
2018-11-01T14:27:44.498Z,11.10
2018-11-01T14:30:12.702Z,11.10
2018-11-01T14:32:40.763Z,11.00
2018-11-01T14:35:08.817Z,11.00
2018-11-01T14:37:36.927Z,11.20
2018-11-01T14:40:08.049Z,11.10
2018-11-01T14:42:36.141Z,11.10
2018-11-01T14:45:04.826Z,11.00
2018-11-01T14:47:32.893Z,10.90
2018-11-01T14:50:01.155Z,10.80
2018-11-01T14:52:29.611Z,10.70
2018-11-01T14:54:58.532Z,10.70
2018-11-01T14:57:27.267Z,10.60
2018-11-01T14:59:54.435Z,10.60
2018-11-01T15:02:22.135Z,10.60
2018-11-01T15:04:50.260Z,10.50
2018-11-01T15:07:18.593Z,10.50
2018-11-01T15:09:46.626Z,10.40
2018-11-01T15:12:14.812Z,10.40
2018-11-01T15:14:42.980Z,10.40
2018-11-01T15:17:11.320Z,10.40
2018-11-01T15:19:39.361Z,10.40
2018-11-01T15:22:07.489Z,10.40
2018-11-01T15:24:35.564Z,10.40
2018-11-01T15:27:03.731Z,10.50
2018-11-01T15:29:31.749Z,10.50
2018-11-01T15:31:59.990Z,10.50
2018-11-01T15:34:28.450Z,10.50
2018-11-01T15:36:56.525Z,10.40
2018-11-01T15:39:24.699Z,10.40
2018-11-01T15:41:52.790Z,10.30
2018-11-01T15:44:20.868Z,10.30
2018-11-01T15:46:48.950Z,10.30
2018-11-01T15:49:17.063Z,10.30
2018-11-01T15:51:45.166Z,10.30
2018-11-01T15:54:13.291Z,10.20
2018-11-01T15:56:41.405Z,10.00
2018-11-01T15:59:09.525Z,10.00
2018-11-01T16:01:37.749Z,9.90
2018-11-01T16:04:05.884Z,9.90
2018-11-01T16:06:33.901Z,9.80
2018-11-01T16:09:02.024Z,9.80
2018-11-01T16:11:30.104Z,9.70
2018-11-01T16:13:58.219Z,9.70
2018-11-01T16:16:26.324Z,9.70
2018-11-01T16:18:54.375Z,9.60
2018-11-01T16:21:22.517Z,9.60
2018-11-01T16:23:50.669Z,9.60
2018-11-01T16:26:18.704Z,9.60
2018-11-01T16:28:46.796Z,9.60
2018-11-01T16:31:14.878Z,9.60
2018-11-01T16:33:42.905Z,9.60
2018-11-01T16:36:11.049Z,9.60
2018-11-01T16:38:39.196Z,9.70
2018-11-01T16:41:07.568Z,9.70
2018-11-01T16:43:35.688Z,9.70
2018-11-01T16:46:04.029Z,9.80
2018-11-01T16:48:32.082Z,9.70
2018-11-01T16:51:00.300Z,10.00
2018-11-01T16:53:28.322Z,10.30
2018-11-01T16:55:56.386Z,10.40
2018-11-01T16:58:24.898Z,10.70
2018-11-01T17:00:52.991Z,10.60
2018-11-01T17:03:21.384Z,10.70
2018-11-01T17:05:49.476Z,10.80
2018-11-01T17:08:17.579Z,11.00
2018-11-01T17:10:45.752Z,11.10
2018-11-01T17:13:14.021Z,11.10
2018-11-01T17:15:42.121Z,11.20
2018-11-01T17:18:10.241Z,11.20
2018-11-01T17:20:38.300Z,11.00
2018-11-01T17:23:06.515Z,10.90
2018-11-01T17:25:34.573Z,10.80
2018-11-01T17:28:02.697Z,10.60
2018-11-01T17:30:30.923Z,10.50
2018-11-01T17:32:59.001Z,10.50
2018-11-01T17:35:27.114Z,10.40
2018-11-01T17:37:55.237Z,10.40
2018-11-01T17:40:23.313Z,10.40
2018-11-01T17:42:51.433Z,10.40
2018-11-01T17:45:19.529Z,10.40
2018-11-01T17:47:47.612Z,10.30
2018-11-01T17:50:15.702Z,10.30
2018-11-01T17:52:43.904Z,10.30
2018-11-01T17:55:12.010Z,10.30
2018-11-01T17:57:40.142Z,10.30
2018-11-01T18:00:10.086Z,10.30
2018-11-01T18:02:38.429Z,10.30
2018-11-01T18:05:06.716Z,10.20
2018-11-01T18:07:34.758Z,10.20
2018-11-01T18:10:02.927Z,10.20
2018-11-01T18:12:31.245Z,10.20
2018-11-01T18:14:59.542Z,10.20
2018-11-01T18:17:27.627Z,10.10
2018-11-01T18:19:55.753Z,10.10
2018-11-01T18:22:24.166Z,10.10
2018-11-01T18:24:52.262Z,10.10
2018-11-01T18:27:24.157Z,10.00
2018-11-01T18:29:52.268Z,10.00
2018-11-01T18:32:20.450Z,9.90
2018-11-01T18:34:48.533Z,10.00
2018-11-01T18:37:16.639Z,10.10
2018-11-01T18:39:44.727Z,10.10
2018-11-01T18:42:12.888Z,10.20
2018-11-01T18:44:40.977Z,10.30
2018-11-01T18:47:09.167Z,10.30
2018-11-01T18:49:37.236Z,10.40
2018-11-01T18:52:05.814Z,10.40
2018-11-01T18:54:33.995Z,10.40
2018-11-01T18:57:02.116Z,10.40
2018-11-01T18:59:30.142Z,10.30
2018-11-01T19:01:58.314Z,10.30
2018-11-01T19:04:26.374Z,10.30
2018-11-01T19:06:54.629Z,10.30
2018-11-01T19:09:22.654Z,10.30
2018-11-01T19:11:50.796Z,10.30
2018-11-01T19:14:18.945Z,10.40
2018-11-01T19:16:47.188Z,10.40
2018-11-01T19:19:15.264Z,10.40
2018-11-01T19:21:43.551Z,10.40
2018-11-01T19:24:11.527Z,10.50
2018-11-01T19:26:39.728Z,10.50
2018-11-01T19:29:07.803Z,10.50
2018-11-01T19:31:36.066Z,10.50
2018-11-01T19:34:04.581Z,10.50
2018-11-01T19:36:33.713Z,10.60
2018-11-01T19:39:01.791Z,10.50
2018-11-01T19:41:29.925Z,10.50
2018-11-01T19:43:57.962Z,10.50
2018-11-01T19:46:26.069Z,10.50
2018-11-01T19:48:54.291Z,10.50
2018-11-01T19:51:22.521Z,10.60
2018-11-01T19:53:50.691Z,10.60
2018-11-01T19:56:18.831Z,10.50
2018-11-01T19:58:47.614Z,10.50
2018-11-01T20:01:15.840Z,10.60
2018-11-01T20:03:43.962Z,10.60
2018-11-01T20:06:12.238Z,10.50
2018-11-01T20:08:40.456Z,10.50
2018-11-01T20:11:08.607Z,10.50
2018-11-01T20:13:36.759Z,10.50
2018-11-01T20:16:05.149Z,10.50
2018-11-01T20:18:33.361Z,10.50
2018-11-01T20:21:01.530Z,10.40
2018-11-01T20:23:29.597Z,10.40
2018-11-01T20:25:57.780Z,10.50
2018-11-01T20:28:25.996Z,10.50
2018-11-01T20:30:54.116Z,10.40
2018-11-01T20:33:22.499Z,10.40
2018-11-01T20:35:50.692Z,10.40
2018-11-01T20:38:18.998Z,10.30
2018-11-01T20:40:47.182Z,10.30
2018-11-01T20:43:15.530Z,10.30
2018-11-01T20:45:43.679Z,10.30
2018-11-01T20:48:11.901Z,10.30
2018-11-01T20:50:40.051Z,10.30
2018-11-01T20:53:08.252Z,10.30
2018-11-01T20:55:36.437Z,10.30
2018-11-01T20:58:04.712Z,10.30
2018-11-01T21:00:32.807Z,10.30
2018-11-01T21:03:00.980Z,10.30
2018-11-01T21:05:29.246Z,10.30
2018-11-01T21:07:57.306Z,10.40
2018-11-01T21:10:25.357Z,10.40
2018-11-01T21:12:53.672Z,10.40
2018-11-01T21:15:21.808Z,10.50
2018-11-01T21:17:49.992Z,10.50
2018-11-01T21:20:18.118Z,10.50
2018-11-01T21:22:46.289Z,10.50
2018-11-01T21:25:14.340Z,10.50
2018-11-01T21:27:42.449Z,10.50
2018-11-01T21:30:10.577Z,10.60
2018-11-01T21:32:38.677Z,10.50
2018-11-01T21:35:07.232Z,10.60
2018-11-01T21:37:35.356Z,10.50
2018-11-01T21:40:05.294Z,10.50
2018-11-01T21:42:33.434Z,10.50
2018-11-01T21:45:01.663Z,10.40
2018-11-01T21:47:29.761Z,10.40
2018-11-01T21:49:57.928Z,10.40
2018-11-01T21:52:26.024Z,10.40
2018-11-01T21:54:54.120Z,10.50
2018-11-01T21:57:22.216Z,10.50
2018-11-01T21:59:50.265Z,10.50
2018-11-01T22:02:18.317Z,10.50
2018-11-01T22:04:46.365Z,10.50
2018-11-01T22:07:14.839Z,10.50
2018-11-01T22:09:43.156Z,10.50
2018-11-01T22:12:11.141Z,10.60
2018-11-01T22:14:39.216Z,10.60
2018-11-01T22:17:07.689Z,10.60
2018-11-01T22:19:35.717Z,10.70
2018-11-01T22:22:04.025Z,10.70
2018-11-01T22:24:32.142Z,10.70
2018-11-01T22:27:00.330Z,10.80
2018-11-01T22:29:28.390Z,10.90
2018-11-01T22:31:56.850Z,11.00
2018-11-01T22:34:24.895Z,11.00
2018-11-01T22:36:52.929Z,11.10
2018-11-01T22:39:21.036Z,11.10
2018-11-01T22:41:49.266Z,11.00
2018-11-01T22:44:17.521Z,11.00
2018-11-01T22:46:45.623Z,11.00
2018-11-01T22:49:13.800Z,11.00
2018-11-01T22:51:41.906Z,10.90
2018-11-01T22:54:10.001Z,10.90
2018-11-01T22:56:38.121Z,10.80
2018-11-01T22:59:06.221Z,10.70
2018-11-01T23:01:34.400Z,10.70
2018-11-01T23:04:02.719Z,10.60
2018-11-01T23:06:30.846Z,10.60
2018-11-01T23:08:58.944Z,10.60
2018-11-01T23:11:26.991Z,10.60
2018-11-01T23:13:55.092Z,10.60
2018-11-01T23:16:23.208Z,10.60
2018-11-01T23:18:51.489Z,10.70
2018-11-01T23:21:19.761Z,10.80
2018-11-01T23:23:48.174Z,10.90
2018-11-01T23:26:16.308Z,11.00
2018-11-01T23:28:44.241Z,11.10
2018-11-01T23:31:12.413Z,11.20
2018-11-01T23:33:40.527Z,11.20
2018-11-01T23:36:08.566Z,11.20
2018-11-01T23:38:36.651Z,11.30
2018-11-01T23:41:05.251Z,11.30
2018-11-01T23:43:33.341Z,11.40
2018-11-01T23:46:01.484Z,11.40
2018-11-01T23:48:29.491Z,11.30
2018-11-01T23:50:57.549Z,11.30
2018-11-01T23:53:25.576Z,11.20
2018-11-01T23:55:53.946Z,11.30
2018-11-01T23:58:21.970Z,11.30
